createdAt,value
2018-09-14T00:02:03.052Z,52
2018-09-14T00:07:29.442Z,52
2018-09-14T00:12:59.346Z,52
2018-09-14T00:18:30.794Z,52
2018-09-14T00:24:00.701Z,52
2018-09-14T00:29:31.853Z,52
2018-09-14T00:35:07.149Z,52
2018-09-14T00:40:37.217Z,52
2018-09-14T00:46:02.288Z,52
2018-09-14T00:51:33.510Z,52
2018-09-14T00:57:04.580Z,52
2018-09-14T01:02:35.773Z,52
2018-09-14T01:08:05.918Z,52
2018-09-14T01:13:41.540Z,51
2018-09-14T01:19:08.050Z,51
2018-09-14T01:24:38.700Z,51
2018-09-14T01:30:09.699Z,51
2018-09-14T01:35:40.848Z,51
2018-09-14T01:41:11.087Z,51
2018-09-14T01:46:41.058Z,51
2018-09-14T01:52:17.240Z,52
2018-09-14T01:57:43.367Z,52
2018-09-14T02:03:13.527Z,52
2018-09-14T02:08:43.917Z,52
2018-09-14T02:14:14.249Z,52
2018-09-14T02:19:43.975Z,52
2018-09-14T02:25:14.111Z,52
2018-09-14T02:30:44.315Z,52
2018-09-14T02:36:14.567Z,52
2018-09-14T02:41:44.810Z,52
2018-09-14T02:47:21.023Z,52
2018-09-14T02:52:45.829Z,51
2018-09-14T02:58:17.197Z,51
2018-09-14T03:03:48.135Z,50
2018-09-14T03:09:18.380Z,50
2018-09-14T03:14:54.911Z,49
2018-09-14T03:20:25.922Z,49
2018-09-14T03:25:52.239Z,49
2018-09-14T03:31:22.509Z,48
2018-09-14T03:36:57.854Z,48
2018-09-14T03:42:24.179Z,48
2018-09-14T03:47:56.277Z,48
2018-09-14T03:53:26.859Z,48
2018-09-14T03:58:57.243Z,45
2018-09-14T04:04:33.587Z,46
2018-09-14T04:09:58.868Z,46
2018-09-14T04:15:30.405Z,47
2018-09-14T04:21:00.623Z,47
2018-09-14T04:26:30.650Z,47
2018-09-14T04:32:06.879Z,47
2018-09-14T04:43:08.280Z,48
2018-09-14T04:48:38.500Z,49
2018-09-14T04:54:03.685Z,48
2018-09-14T04:59:35.175Z,48
2018-09-14T05:05:05.053Z,48
2018-09-14T05:10:40.294Z,47
2018-09-14T05:16:06.625Z,48
2018-09-14T05:21:38.004Z,47
2018-09-14T05:27:09.100Z,47
2018-09-14T05:32:40.386Z,47
2018-09-14T05:38:10.773Z,47
2018-09-14T05:43:42.340Z,47
2018-09-14T05:49:17.490Z,47
2018-09-14T05:54:44.097Z,47
2018-09-14T06:00:15.270Z,47
2018-09-14T06:05:45.609Z,47
2018-09-14T06:11:21.031Z,47
2018-09-14T06:16:51.468Z,45
2018-09-14T06:22:17.074Z,46
2018-09-14T06:27:47.372Z,47
2018-09-14T06:33:17.447Z,47
2018-09-14T06:38:48.250Z,46
2018-09-14T06:44:24.185Z,46
2018-09-14T06:49:55.692Z,47
2018-09-14T06:55:20.941Z,47
2018-09-14T07:00:50.982Z,47
2018-09-14T07:06:22.311Z,47
2018-09-14T07:11:57.673Z,47
2018-09-14T07:17:28.070Z,47
2018-09-14T07:22:53.118Z,47
2018-09-14T07:34:00.661Z,47
2018-09-14T07:39:27.031Z,48
2018-09-14T07:45:02.240Z,49
2018-09-14T07:50:28.734Z,49
2018-09-14T07:55:58.966Z,50
2018-09-14T08:01:28.849Z,50
2018-09-14T08:07:04.342Z,51
2018-09-14T08:12:29.239Z,51
2018-09-14T08:18:05.457Z,52
2018-09-14T08:23:30.653Z,52
2018-09-14T08:29:01.064Z,51
2018-09-14T08:34:31.379Z,51
2018-09-14T08:40:01.284Z,50
2018-09-14T08:45:37.561Z,50
2018-09-14T08:51:02.761Z,50
2018-09-14T08:56:34.321Z,50
2018-09-14T09:02:05.276Z,50
2018-09-14T09:07:42.121Z,50
2018-09-14T09:13:07.449Z,50
2018-09-14T09:18:37.128Z,50
2018-09-14T09:24:07.510Z,50
2018-09-14T09:29:37.823Z,50
2018-09-14T09:35:13.321Z,50
2018-09-14T09:40:38.132Z,50
2018-09-14T09:46:09.638Z,50
2018-09-14T09:51:39.566Z,50
2018-09-14T09:57:09.834Z,50
2018-09-14T10:02:40.570Z,52
2018-09-14T10:08:16.314Z,53
2018-09-14T10:13:41.521Z,53
2018-09-14T10:19:16.821Z,53
2018-09-14T10:24:41.890Z,52
2018-09-14T10:30:17.208Z,52
2018-09-14T10:35:42.659Z,52
2018-09-14T10:41:17.536Z,52
2018-09-14T10:46:48.779Z,51
2018-09-14T10:52:13.984Z,51
2018-09-14T10:57:45.198Z,51
2018-09-14T11:03:15.454Z,51
2018-09-14T11:08:51.230Z,51
2018-09-14T11:14:15.995Z,51
2018-09-14T11:19:52.147Z,51
2018-09-14T11:25:17.551Z,51
2018-09-14T11:30:47.568Z,51
2018-09-14T11:36:19.049Z,51
2018-09-14T11:41:50.083Z,51
2018-09-14T11:47:21.511Z,54
2018-09-14T11:52:57.955Z,54
2018-09-14T11:58:23.845Z,54
2018-09-14T12:03:55.051Z,54
2018-09-14T12:09:24.918Z,54
2018-09-14T12:14:55.247Z,54
2018-09-14T12:20:31.882Z,53
2018-09-14T12:26:02.548Z,53
2018-09-14T12:31:28.418Z,53
2018-09-14T12:37:04.869Z,53
2018-09-14T12:42:30.815Z,52
2018-09-14T12:48:02.086Z,52
2018-09-14T12:53:32.041Z,52
2018-09-14T12:59:08.517Z,52
2018-09-14T13:04:39.449Z,51
2018-09-14T13:10:10.789Z,51
2018-09-14T13:15:36.079Z,51
2018-09-14T13:21:07.302Z,51
2018-09-14T13:26:37.265Z,51
2018-09-14T13:32:08.640Z,51
2018-09-14T13:37:43.612Z,51
2018-09-14T13:43:13.783Z,51
2018-09-14T13:48:43.935Z,51
2018-09-14T13:54:09.134Z,51
2018-09-14T13:59:45.325Z,51
2018-09-14T14:05:11.513Z,51
2018-09-14T14:10:42.002Z,51
2018-09-14T14:16:12.155Z,51
2018-09-14T14:21:43.090Z,51
2018-09-14T14:27:19.381Z,51
2018-09-14T14:32:44.716Z,51
2018-09-14T14:38:15.736Z,51
2018-09-14T14:43:51.575Z,50
2018-09-14T14:49:16.317Z,49
2018-09-14T14:54:47.300Z,50
2018-09-14T15:00:23.022Z,51
2018-09-14T15:11:18.885Z,52
2018-09-14T15:16:49.105Z,52
2018-09-14T15:22:20.320Z,52
2018-09-14T15:27:55.387Z,52
2018-09-14T15:33:25.160Z,52
2018-09-14T15:38:55.332Z,52
2018-09-14T15:44:20.744Z,51
2018-09-14T15:49:55.619Z,51
2018-09-14T15:55:21.014Z,51
2018-09-14T16:00:51.221Z,51
2018-09-14T16:06:26.240Z,51
2018-09-14T16:11:57.476Z,51
2018-09-14T16:17:27.545Z,51
2018-09-14T16:22:53.653Z,51
2018-09-14T16:28:23.873Z,51
2018-09-14T16:33:54.345Z,51
2018-09-14T16:39:30.513Z,51
2018-09-14T16:45:01.486Z,51
2018-09-14T16:50:26.614Z,51
2018-09-14T16:55:57.518Z,51
2018-09-14T17:01:33.228Z,51
2018-09-14T17:06:58.200Z,51
2018-09-14T17:12:29.327Z,51
2018-09-14T17:17:59.505Z,51
2018-09-14T17:23:30.696Z,51
2018-09-14T17:29:00.844Z,51
2018-09-14T17:34:37.347Z,51
2018-09-14T17:40:03.229Z,51
2018-09-14T17:45:33.447Z,51
2018-09-14T17:51:04.317Z,51
2018-09-14T17:56:33.760Z,51
2018-09-14T18:02:04.942Z,51
2018-09-14T18:07:35.395Z,51
2018-09-14T18:13:10.601Z,51
2018-09-14T18:18:41.737Z,51
2018-09-14T18:24:07.148Z,51
2018-09-14T18:29:42.860Z,51
2018-09-14T18:35:13.162Z,51
2018-09-14T18:40:38.187Z,51
2018-09-14T18:46:08.431Z,51
2018-09-14T18:51:39.575Z,51
2018-09-14T18:57:09.873Z,51
2018-09-14T19:02:39.945Z,51
2018-09-14T19:08:10.399Z,51
2018-09-14T19:13:41.575Z,51
2018-09-14T19:19:11.470Z,51
2018-09-14T19:24:41.996Z,51
2018-09-14T19:30:12.828Z,51
2018-09-14T19:35:49.040Z,51
2018-09-14T19:41:14.206Z,51
2018-09-14T19:46:44.363Z,51
2018-09-14T19:52:15.842Z,51
2018-09-14T19:57:45.706Z,51
2018-09-14T20:03:17.176Z,51
2018-09-14T20:08:52.329Z,51
2018-09-14T20:14:18.520Z,51
2018-09-14T20:19:49.337Z,51
2018-09-14T20:25:20.523Z,51
2018-09-14T20:30:56.280Z,51
2018-09-14T20:36:21.004Z,51
2018-09-14T20:41:52.144Z,51
2018-09-14T20:47:22.503Z,51
2018-09-14T20:52:57.396Z,52
2018-09-14T20:58:22.731Z,52
2018-09-14T21:03:58.974Z,52
2018-09-14T21:09:23.853Z,52
2018-09-14T21:14:54.727Z,52
2018-09-14T21:20:25.776Z,52
2018-09-14T21:25:56.117Z,52
2018-09-14T21:31:26.176Z,52
2018-09-14T21:36:57.268Z,52
2018-09-14T21:42:28.146Z,52
2018-09-14T21:47:58.128Z,52
2018-09-14T21:53:34.243Z,52
2018-09-14T21:59:04.360Z,52
2018-09-14T22:04:29.574Z,52
2018-09-14T22:10:00.645Z,52
2018-09-14T22:15:35.447Z,52
2018-09-14T22:21:00.539Z,52
2018-09-14T22:26:31.832Z,52
2018-09-14T22:32:02.608Z,52
2018-09-14T22:37:33.686Z,52
2018-09-14T22:43:04.725Z,52
2018-09-14T22:48:35.085Z,52
2018-09-14T22:54:05.266Z,52
2018-09-14T22:59:36.683Z,52
2018-09-14T23:05:06.985Z,52
2018-09-14T23:10:37.278Z,52
2018-09-14T23:16:12.053Z,52
2018-09-14T23:21:37.407Z,52
2018-09-14T23:27:12.220Z,52
2018-09-14T23:32:42.269Z,52
2018-09-14T23:38:07.558Z,52
2018-09-14T23:43:37.378Z,52
2018-09-14T23:49:13.609Z,52
2018-09-14T23:54:39.383Z,53
